Alliance, NE (69301)

9:29 AM MDT on July 27, 2016 (GMT -0600)
Alliance | | Change Station

Elev 3999 ft 42.11 °N, 102.88 °W | Updated 7 minutes ago

Clear
Clear
66.9 °F
Feels Like 66.9 °F
N
2.7
Wind Variable Wind from NW

Today
High -- | Low -- °F
--% Chance of Precip.
Yesterday
High -- | Low -- °F
Precip. -- in
Pressure 30.06 in
Visibility 10.0 miles
Clouds Clear
Dew Point 62 °F
Humidity 83%
Rainfall 0.05 in
Snow Depth Not available.
5:40 AM 8:15 PM
Last Quarter, 42% visible
METAR KAIA 271453Z AUTO 32007KT 10SM CLR 18/16 A3016 RMK AO2 WSHFT 1407 LTG DSNT S RAE34 SLP178 P0001 60002 T01830156 50002 $
Pressure 30.06 in
Visibility 10.0 miles
Clouds Clear
Dew Point 62 °F
Humidity 83%
Rainfall 0.05 in
Snow Depth Not available.
5:40 AM 8:15 PM
Last Quarter, 42% visible
METAR KAIA 271453Z AUTO 32007KT 10SM CLR 18/16 A3016 RMK AO2 WSHFT 1407 LTG DSNT S RAE34 SLP178 P0001 60002 T01830156 50002 $

10-Day Weather Forecast

Almanac

Astronomy

Jul. 27, 2016 Rise Set
Actual Time
Civil Twilight
Nautical Twilight
Astronomical Twilight
Moon
Length of Visible Light
Length of Day
Tomorrow will be .
, % of the Moon is Illuminated

Today's Extremes

State Highs State Lows

Community

WunderPhotos

Upload Photos

1,927,859 photos uploaded!

WunderBlog® & News

Nearby

Air Quality

  Air Quality AQ Index Pollutant
Not available.

Snow Depth

Station Depth Elevation

Earthquake Activity

City Distance Mag. Time & Date
Minimum magnitude displayed is 2.5.

Coastal Water Temperatures

Place Temperature

Stations

Nearby Weather Stations

Station Location Temp. Windchill Dew Point Humidity Wind Precip. Elev Updated Type
                   

Watches & Warnings

There are currently no watches in effect.